sensor_id;sensor_type;location;lat;lon;timestamp;temperature;humidity
49042;DHT22;34859;51.608;11.462;2023-08-24T00:02:10;16.40;99.90
49042;DHT22;34859;51.608;11.462;2023-08-24T00:05:53;16.30;99.90
49042;DHT22;34859;51.608;11.462;2023-08-24T00:09:33;16.40;99.90
49042;DHT22;34859;51.608;11.462;2023-08-24T00:12:50;16.30;99.90
49042;DHT22;34859;51.608;11.462;2023-08-24T00:16:01;16.20;99.90
49042;DHT22;34859;51.608;11.462;2023-08-24T00:19:23;16.30;99.90
49042;DHT22;34859;51.608;11.462;2023-08-24T00:22:48;16.30;99.90
49042;DHT22;34859;51.608;11.462;2023-08-24T00:26:10;16.30;99.90
49042;DHT22;34859;51.608;11.462;2023-08-24T00:29:28;16.20;99.90
49042;DHT22;34859;51.608;11.462;2023-08-24T00:32:18;16.10;99.90
49042;DHT22;34859;51.608;11.462;2023-08-24T00:34:44;16.10;99.90
49042;DHT22;34859;51.608;11.462;2023-08-24T00:37:10;16.10;99.90
49042;DHT22;34859;51.608;11.462;2023-08-24T00:39:37;16.00;99.90
49042;DHT22;34859;51.608;11.462;2023-08-24T00:42:03;16.00;99.90
49042;DHT22;34859;51.608;11.462;2023-08-24T00:44:35;16.00;99.90
49042;DHT22;34859;51.608;11.462;2023-08-24T00:47:01;16.00;99.90
49042;DHT22;34859;51.608;11.462;2023-08-24T00:49:28;15.90;99.90
49042;DHT22;34859;51.608;11.462;2023-08-24T00:51:54;16.00;99.90
49042;DHT22;34859;51.608;11.462;2023-08-24T00:54:20;16.00;99.90
49042;DHT22;34859;51.608;11.462;2023-08-24T00:56:47;16.00;99.90
49042;DHT22;34859;51.608;11.462;2023-08-24T00:59:13;16.00;99.90
49042;DHT22;34859;51.608;11.462;2023-08-24T01:01:41;16.00;99.90
49042;DHT22;34859;51.608;11.462;2023-08-24T01:04:09;15.90;99.90
49042;DHT22;34859;51.608;11.462;2023-08-24T01:06:38;15.90;99.90
49042;DHT22;34859;51.608;11.462;2023-08-24T01:09:04;15.90;99.90
49042;DHT22;34859;51.608;11.462;2023-08-24T01:11:42;15.80;99.90
49042;DHT22;34859;51.608;11.462;2023-08-24T01:16:46;15.90;99.90
49042;DHT22;34859;51.608;11.462;2023-08-24T01:25:21;15.80;99.90
49042;DHT22;34859;51.608;11.462;2023-08-24T01:27:49;15.80;99.90
49042;DHT22;34859;51.608;11.462;2023-08-24T01:30:18;15.80;99.90
49042;DHT22;34859;51.608;11.462;2023-08-24T01:32:45;15.80;99.90
49042;DHT22;34859;51.608;11.462;2023-08-24T01:35:11;15.80;99.90
49042;DHT22;34859;51.608;11.462;2023-08-24T01:37:37;15.80;99.90
49042;DHT22;34859;51.608;11.462;2023-08-24T01:40:13;15.80;99.90
49042;DHT22;34859;51.608;11.462;2023-08-24T01:42:59;15.70;99.90
49042;DHT22;34859;51.608;11.462;2023-08-24T01:45:30;15.70;99.90
49042;DHT22;34859;51.608;11.462;2023-08-24T01:48:00;15.70;99.90
49042;DHT22;34859;51.608;11.462;2023-08-24T01:50:32;15.70;99.90
49042;DHT22;34859;51.608;11.462;2023-08-24T01:52:59;15.70;99.90
49042;DHT22;34859;51.608;11.462;2023-08-24T01:55:25;15.60;99.90
49042;DHT22;34859;51.608;11.462;2023-08-24T01:57:51;15.60;99.90
49042;DHT22;34859;51.608;11.462;2023-08-24T02:00:20;15.60;99.90
49042;DHT22;34859;51.608;11.462;2023-08-24T02:02:47;15.60;99.90
49042;DHT22;34859;51.608;11.462;2023-08-24T02:05:13;15.60;99.90
49042;DHT22;34859;51.608;11.462;2023-08-24T02:07:39;15.60;99.90
49042;DHT22;34859;51.608;11.462;2023-08-24T02:10:07;15.50;99.90
49042;DHT22;34859;51.608;11.462;2023-08-24T02:12:33;15.60;99.90
49042;DHT22;34859;51.608;11.462;2023-08-24T02:14:59;15.50;99.90
49042;DHT22;34859;51.608;11.462;2023-08-24T02:17:26;15.50;99.90
49042;DHT22;34859;51.608;11.462;2023-08-24T02:19:52;15.50;99.90
49042;DHT22;34859;51.608;11.462;2023-08-24T02:22:20;15.50;99.90
49042;DHT22;34859;51.608;11.462;2023-08-24T02:24:47;15.50;99.90
49042;DHT22;34859;51.608;11.462;2023-08-24T02:27:13;15.50;99.90
49042;DHT22;34859;51.608;11.462;2023-08-24T02:29:58;15.50;99.90
49042;DHT22;34859;51.608;11.462;2023-08-24T02:32:23;15.50;99.90
49042;DHT22;34859;51.608;11.462;2023-08-24T02:34:49;15.50;99.90
49042;DHT22;34859;51.608;11.462;2023-08-24T02:37:15;15.50;99.90
49042;DHT22;34859;51.608;11.462;2023-08-24T02:39:41;15.50;99.90
49042;DHT22;34859;51.608;11.462;2023-08-24T02:42:10;15.50;99.90
49042;DHT22;34859;51.608;11.462;2023-08-24T02:44:37;15.40;99.90
49042;DHT22;34859;51.608;11.462;2023-08-24T02:47:03;15.40;99.90
49042;DHT22;34859;51.608;11.462;2023-08-24T02:49:29;15.40;99.90
49042;DHT22;34859;51.608;11.462;2023-08-24T02:52:15;15.40;99.90
49042;DHT22;34859;51.608;11.462;2023-08-24T02:54:40;15.30;99.90
49042;DHT22;34859;51.608;11.462;2023-08-24T02:57:07;15.40;99.90
49042;DHT22;34859;51.608;11.462;2023-08-24T02:59:33;15.30;99.90
49042;DHT22;34859;51.608;11.462;2023-08-24T03:01:58;15.30;99.90
49042;DHT22;34859;51.608;11.462;2023-08-24T03:04:24;15.30;99.90
49042;DHT22;34859;51.608;11.462;2023-08-24T03:06:50;15.30;99.90
49042;DHT22;34859;51.608;11.462;2023-08-24T03:09:17;15.30;99.90
49042;DHT22;34859;51.608;11.462;2023-08-24T03:11:42;15.30;99.90
49042;DHT22;34859;51.608;11.462;2023-08-24T03:14:08;15.20;99.90
49042;DHT22;34859;51.608;11.462;2023-08-24T03:16:34;15.20;99.90
49042;DHT22;34859;51.608;11.462;2023-08-24T03:19:00;15.20;99.90
49042;DHT22;34859;51.608;11.462;2023-08-24T03:21:26;15.20;99.90
49042;DHT22;34859;51.608;11.462;2023-08-24T03:23:52;15.20;99.90
49042;DHT22;34859;51.608;11.462;2023-08-24T03:26:18;15.30;99.90
49042;DHT22;34859;51.608;11.462;2023-08-24T03:28:46;15.20;99.90
49042;DHT22;34859;51.608;11.462;2023-08-24T03:31:11;15.20;99.90
49042;DHT22;34859;51.608;11.462;2023-08-24T03:33:41;15.20;99.90
49042;DHT22;34859;51.608;11.462;2023-08-24T03:36:07;15.20;99.90
49042;DHT22;34859;51.608;11.462;2023-08-24T03:38:33;15.10;99.90
49042;DHT22;34859;51.608;11.462;2023-08-24T03:41:02;15.10;99.90
49042;DHT22;34859;51.608;11.462;2023-08-24T03:43:31;15.20;99.90
49042;DHT22;34859;51.608;11.462;2023-08-24T03:45:58;15.10;99.90
49042;DHT22;34859;51.608;11.462;2023-08-24T03:48:23;15.10;99.90
49042;DHT22;34859;51.608;11.462;2023-08-24T03:50:54;15.10;99.90
49042;DHT22;34859;51.608;11.462;2023-08-24T03:53:20;15.10;99.90
49042;DHT22;34859;51.608;11.462;2023-08-24T03:55:48;15.10;99.90
49042;DHT22;34859;51.608;11.462;2023-08-24T03:58:14;15.10;99.90
49042;DHT22;34859;51.608;11.462;2023-08-24T04:00:40;15.10;99.90
49042;DHT22;34859;51.608;11.462;2023-08-24T04:03:08;15.00;99.90
49042;DHT22;34859;51.608;11.462;2023-08-24T04:05:33;15.00;99.90
49042;DHT22;34859;51.608;11.462;2023-08-24T04:08:00;15.00;99.90
49042;DHT22;34859;51.608;11.462;2023-08-24T04:10:29;15.00;99.90
49042;DHT22;34859;51.608;11.462;2023-08-24T04:13:15;15.00;99.90
49042;DHT22;34859;51.608;11.462;2023-08-24T04:16:01;15.00;99.90
49042;DHT22;34859;51.608;11.462;2023-08-24T04:18:46;15.00;99.90
49042;DHT22;34859;51.608;11.462;2023-08-24T04:21:32;15.00;99.90
49042;DHT22;34859;51.608;11.462;2023-08-24T04:24:18;14.90;99.90
49042;DHT22;34859;51.608;11.462;2023-08-24T04:27:03;15.00;99.90
49042;DHT22;34859;51.608;11.462;2023-08-24T04:29:39;14.90;99.90
49042;DHT22;34859;51.608;11.462;2023-08-24T04:32:06;15.00;99.90
49042;DHT22;34859;51.608;11.462;2023-08-24T04:34:31;15.00;99.90
49042;DHT22;34859;51.608;11.462;2023-08-24T04:36:58;15.00;99.90
49042;DHT22;34859;51.608;11.462;2023-08-24T04:39:23;15.00;99.90
49042;DHT22;34859;51.608;11.462;2023-08-24T04:41:50;15.00;99.90
49042;DHT22;34859;51.608;11.462;2023-08-24T04:44:17;14.90;99.90
49042;DHT22;34859;51.608;11.462;2023-08-24T04:46:43;15.00;99.90
49042;DHT22;34859;51.608;11.462;2023-08-24T04:49:08;14.90;99.90
49042;DHT22;34859;51.608;11.462;2023-08-24T04:51:35;14.90;99.90
49042;DHT22;34859;51.608;11.462;2023-08-24T04:54:00;15.00;99.90
49042;DHT22;34859;51.608;11.462;2023-08-24T04:56:28;15.00;99.90
49042;DHT22;34859;51.608;11.462;2023-08-24T04:58:57;15.00;99.90
49042;DHT22;34859;51.608;11.462;2023-08-24T05:01:28;15.00;99.90
49042;DHT22;34859;51.608;11.462;2023-08-24T05:03:57;15.00;99.90
49042;DHT22;34859;51.608;11.462;2023-08-24T05:06:23;15.10;99.90
49042;DHT22;34859;51.608;11.462;2023-08-24T05:08:49;15.10;99.90
49042;DHT22;34859;51.608;11.462;2023-08-24T05:11:22;15.20;99.90
49042;DHT22;34859;51.608;11.462;2023-08-24T05:13:50;15.10;99.90
49042;DHT22;34859;51.608;11.462;2023-08-24T05:16:17;15.20;99.90
49042;DHT22;34859;51.608;11.462;2023-08-24T05:18:43;15.20;99.90
49042;DHT22;34859;51.608;11.462;2023-08-24T05:21:08;15.20;99.90
49042;DHT22;34859;51.608;11.462;2023-08-24T05:23:34;15.30;99.90
49042;DHT22;34859;51.608;11.462;2023-08-24T05:26:03;15.30;99.90
49042;DHT22;34859;51.608;11.462;2023-08-24T05:28:30;15.40;99.90
49042;DHT22;34859;51.608;11.462;2023-08-24T05:30:58;15.50;99.90
49042;DHT22;34859;51.608;11.462;2023-08-24T05:33:24;15.50;99.90
49042;DHT22;34859;51.608;11.462;2023-08-24T05:35:51;15.60;99.90
49042;DHT22;34859;51.608;11.462;2023-08-24T05:38:18;15.70;99.90
49042;DHT22;34859;51.608;11.462;2023-08-24T05:40:46;15.70;99.90
49042;DHT22;34859;51.608;11.462;2023-08-24T05:43:12;15.80;99.90
49042;DHT22;34859;51.608;11.462;2023-08-24T05:45:38;15.80;99.90
49042;DHT22;34859;51.608;11.462;2023-08-24T05:48:06;15.90;99.90
49042;DHT22;34859;51.608;11.462;2023-08-24T05:50:31;16.00;99.90
49042;DHT22;34859;51.608;11.462;2023-08-24T05:53:17;16.10;99.90
49042;DHT22;34859;51.608;11.462;2023-08-24T05:56:03;16.10;99.90
49042;DHT22;34859;51.608;11.462;2023-08-24T05:58:29;16.20;99.90
49042;DHT22;34859;51.608;11.462;2023-08-24T06:00:58;16.30;99.90
49042;DHT22;34859;51.608;11.462;2023-08-24T06:03:25;16.40;99.90
49042;DHT22;34859;51.608;11.462;2023-08-24T06:05:51;16.50;99.90
49042;DHT22;34859;51.608;11.462;2023-08-24T06:08:17;16.60;99.90
49042;DHT22;34859;51.608;11.462;2023-08-24T06:10:43;16.60;99.90
49042;DHT22;34859;51.608;11.462;2023-08-24T06:13:09;16.80;99.90
49042;DHT22;34859;51.608;11.462;2023-08-24T06:15:34;16.80;99.90
49042;DHT22;34859;51.608;11.462;2023-08-24T06:18:00;16.90;99.90
49042;DHT22;34859;51.608;11.462;2023-08-24T06:20:28;16.90;99.90
49042;DHT22;34859;51.608;11.462;2023-08-24T06:22:54;17.00;99.90
49042;DHT22;34859;51.608;11.462;2023-08-24T06:25:21;17.10;99.90
49042;DHT22;34859;51.608;11.462;2023-08-24T06:27:48;17.10;99.90
49042;DHT22;34859;51.608;11.462;2023-08-24T06:30:14;17.20;99.90
49042;DHT22;34859;51.608;11.462;2023-08-24T06:32:41;17.40;99.90
49042;DHT22;34859;51.608;11.462;2023-08-24T06:35:07;17.50;99.90
49042;DHT22;34859;51.608;11.462;2023-08-24T06:37:33;17.60;99.90
49042;DHT22;34859;51.608;11.462;2023-08-24T06:39:59;17.70;99.90
49042;DHT22;34859;51.608;11.462;2023-08-24T06:42:24;17.80;99.90
49042;DHT22;34859;51.608;11.462;2023-08-24T06:44:50;17.90;99.90
49042;DHT22;34859;51.608;11.462;2023-08-24T06:47:19;18.00;99.90
49042;DHT22;34859;51.608;11.462;2023-08-24T06:49:45;18.10;99.90
49042;DHT22;34859;51.608;11.462;2023-08-24T06:52:11;18.20;99.90
49042;DHT22;34859;51.608;11.462;2023-08-24T06:54:37;18.20;99.90
49042;DHT22;34859;51.608;11.462;2023-08-24T06:57:03;18.40;99.90
49042;DHT22;34859;51.608;11.462;2023-08-24T06:59:29;18.50;99.90
49042;DHT22;34859;51.608;11.462;2023-08-24T07:01:55;18.60;99.90
49042;DHT22;34859;51.608;11.462;2023-08-24T07:04:21;18.80;99.90
49042;DHT22;34859;51.608;11.462;2023-08-24T07:06:47;19.00;99.90
49042;DHT22;34859;51.608;11.462;2023-08-24T07:09:14;19.20;99.90
49042;DHT22;34859;51.608;11.462;2023-08-24T07:11:41;19.40;99.90
49042;DHT22;34859;51.608;11.462;2023-08-24T07:14:07;19.60;99.90
49042;DHT22;34859;51.608;11.462;2023-08-24T07:16:33;19.80;99.90
49042;DHT22;34859;51.608;11.462;2023-08-24T07:18:58;20.00;99.90
49042;DHT22;34859;51.608;11.462;2023-08-24T07:21:41;20.20;99.90
49042;DHT22;34859;51.608;11.462;2023-08-24T07:24:07;20.40;99.90
49042;DHT22;34859;51.608;11.462;2023-08-24T07:26:33;20.50;99.90
49042;DHT22;34859;51.608;11.462;2023-08-24T07:28:59;20.60;99.90
49042;DHT22;34859;51.608;11.462;2023-08-24T07:31:25;20.60;99.90
49042;DHT22;34859;51.608;11.462;2023-08-24T07:33:51;20.60;99.90
49042;DHT22;34859;51.608;11.462;2023-08-24T07:36:17;20.70;99.90
49042;DHT22;34859;51.608;11.462;2023-08-24T07:38:45;20.70;99.90
49042;DHT22;34859;51.608;11.462;2023-08-24T07:41:12;20.80;99.90
49042;DHT22;34859;51.608;11.462;2023-08-24T07:43:37;20.80;99.90
49042;DHT22;34859;51.608;11.462;2023-08-24T07:46:03;20.80;99.90
49042;DHT22;34859;51.608;11.462;2023-08-24T07:48:30;20.90;99.90
49042;DHT22;34859;51.608;11.462;2023-08-24T07:50:57;21.00;99.90
49042;DHT22;34859;51.608;11.462;2023-08-24T07:53:22;21.00;99.90
49042;DHT22;34859;51.608;11.462;2023-08-24T07:55:48;21.10;99.90
49042;DHT22;34859;51.608;11.462;2023-08-24T07:58:14;21.20;99.90
49042;DHT22;34859;51.608;11.462;2023-08-24T08:00:40;21.20;99.90
49042;DHT22;34859;51.608;11.462;2023-08-24T08:03:26;21.20;99.90
49042;DHT22;34859;51.608;11.462;2023-08-24T08:05:52;21.30;99.90
49042;DHT22;34859;51.608;11.462;2023-08-24T08:08:18;21.30;99.90
49042;DHT22;34859;51.608;11.462;2023-08-24T08:10:44;21.30;99.90
49042;DHT22;34859;51.608;11.462;2023-08-24T08:13:10;21.40;99.90
49042;DHT22;34859;51.608;11.462;2023-08-24T08:15:37;21.40;99.90
49042;DHT22;34859;51.608;11.462;2023-08-24T08:18:07;21.40;99.90
49042;DHT22;34859;51.608;11.462;2023-08-24T08:20:33;21.40;99.90
49042;DHT22;34859;51.608;11.462;2023-08-24T08:22:58;21.50;99.90
49042;DHT22;34859;51.608;11.462;2023-08-24T08:25:25;21.50;99.90
49042;DHT22;34859;51.608;11.462;2023-08-24T08:27:50;21.50;99.90
49042;DHT22;34859;51.608;11.462;2023-08-24T08:30:19;21.60;99.90
49042;DHT22;34859;51.608;11.462;2023-08-24T08:32:47;21.60;99.90
49042;DHT22;34859;51.608;11.462;2023-08-24T08:35:13;21.60;99.90
49042;DHT22;34859;51.608;11.462;2023-08-24T08:37:39;21.70;99.90
49042;DHT22;34859;51.608;11.462;2023-08-24T08:40:08;21.70;99.90
49042;DHT22;34859;51.608;11.462;2023-08-24T08:42:35;21.80;99.90
49042;DHT22;34859;51.608;11.462;2023-08-24T08:45:04;21.80;99.90
49042;DHT22;34859;51.608;11.462;2023-08-24T08:47:33;21.80;99.90
49042;DHT22;34859;51.608;11.462;2023-08-24T08:50:02;21.90;99.90
49042;DHT22;34859;51.608;11.462;2023-08-24T08:52:33;21.80;99.90
49042;DHT22;34859;51.608;11.462;2023-08-24T08:55:00;21.90;99.90
49042;DHT22;34859;51.608;11.462;2023-08-24T08:57:28;21.90;99.90
49042;DHT22;34859;51.608;11.462;2023-08-24T08:59:54;21.80;99.90
49042;DHT22;34859;51.608;11.462;2023-08-24T09:02:21;21.80;99.90
49042;DHT22;34859;51.608;11.462;2023-08-24T09:04:51;21.80;99.90
49042;DHT22;34859;51.608;11.462;2023-08-24T09:07:17;21.80;99.90
49042;DHT22;34859;51.608;11.462;2023-08-24T09:09:43;21.80;99.90
49042;DHT22;34859;51.608;11.462;2023-08-24T09:12:09;21.90;99.90
49042;DHT22;34859;51.608;11.462;2023-08-24T09:14:35;22.00;99.90
49042;DHT22;34859;51.608;11.462;2023-08-24T09:17:01;22.00;99.90
49042;DHT22;34859;51.608;11.462;2023-08-24T09:19:33;22.10;99.90
49042;DHT22;34859;51.608;11.462;2023-08-24T09:22:02;22.30;99.90
49042;DHT22;34859;51.608;11.462;2023-08-24T09:24:32;22.40;99.90
49042;DHT22;34859;51.608;11.462;2023-08-24T09:27:15;22.40;99.90
49042;DHT22;34859;51.608;11.462;2023-08-24T09:29:41;22.40;99.90
49042;DHT22;34859;51.608;11.462;2023-08-24T09:32:09;22.50;99.90
49042;DHT22;34859;51.608;11.462;2023-08-24T09:34:36;22.60;99.90
49042;DHT22;34859;51.608;11.462;2023-08-24T09:37:02;22.60;99.90
49042;DHT22;34859;51.608;11.462;2023-08-24T09:39:29;22.60;99.90
49042;DHT22;34859;51.608;11.462;2023-08-24T09:42:00;22.60;99.90
49042;DHT22;34859;51.608;11.462;2023-08-24T09:44:31;22.60;99.90
49042;DHT22;34859;51.608;11.462;2023-08-24T09:46:57;22.60;99.90
49042;DHT22;34859;51.608;11.462;2023-08-24T09:49:23;22.60;99.90
49042;DHT22;34859;51.608;11.462;2023-08-24T09:51:49;22.50;99.90
49042;DHT22;34859;51.608;11.462;2023-08-24T09:54:21;22.50;99.90
49042;DHT22;34859;51.608;11.462;2023-08-24T09:56:50;22.40;99.90
49042;DHT22;34859;51.608;11.462;2023-08-24T09:59:17;22.40;99.90
49042;DHT22;34859;51.608;11.462;2023-08-24T10:01:51;22.40;99.90
49042;DHT22;34859;51.608;11.462;2023-08-24T10:04:24;22.40;99.90
49042;DHT22;34859;51.608;11.462;2023-08-24T10:07:15;22.40;99.90
49042;DHT22;34859;51.608;11.462;2023-08-24T10:10:00;22.40;99.90
49042;DHT22;34859;51.608;11.462;2023-08-24T10:12:30;22.40;99.90
49042;DHT22;34859;51.608;11.462;2023-08-24T10:15:00;22.40;99.90
49042;DHT22;34859;51.608;11.462;2023-08-24T10:17:33;22.40;99.90
49042;DHT22;34859;51.608;11.462;2023-08-24T10:20:02;22.40;99.90
49042;DHT22;34859;51.608;11.462;2023-08-24T10:22:34;22.40;99.90
49042;DHT22;34859;51.608;11.462;2023-08-24T10:25:01;22.50;99.90
49042;DHT22;34859;51.608;11.462;2023-08-24T10:27:29;22.60;99.90
49042;DHT22;34859;51.608;11.462;2023-08-24T10:29:56;22.70;99.90
49042;DHT22;34859;51.608;11.462;2023-08-24T10:32:22;22.80;99.90
49042;DHT22;34859;51.608;11.462;2023-08-24T10:34:50;22.90;99.90
49042;DHT22;34859;51.608;11.462;2023-08-24T10:37:17;23.10;99.90
49042;DHT22;34859;51.608;11.462;2023-08-24T10:39:50;23.40;99.90
49042;DHT22;34859;51.608;11.462;2023-08-24T10:42:17;23.70;99.90
49042;DHT22;34859;51.608;11.462;2023-08-24T10:44:46;23.80;99.90
49042;DHT22;34859;51.608;11.462;2023-08-24T10:54:55;24.10;99.90
49042;DHT22;34859;51.608;11.462;2023-08-24T10:57:37;24.20;99.90
49042;DHT22;34859;51.608;11.462;2023-08-24T11:00:13;24.40;99.90
49042;DHT22;34859;51.608;11.462;2023-08-24T11:02:46;24.40;99.90
49042;DHT22;34859;51.608;11.462;2023-08-24T11:05:19;24.40;99.90
49042;DHT22;34859;51.608;11.462;2023-08-24T11:08:02;24.40;99.90
49042;DHT22;34859;51.608;11.462;2023-08-24T11:13:13;24.60;99.90
49042;DHT22;34859;51.608;11.462;2023-08-24T11:15:49;24.70;99.90
49042;DHT22;34859;51.608;11.462;2023-08-24T11:18:28;24.80;99.90
49042;DHT22;34859;51.608;11.462;2023-08-24T11:21:05;24.90;99.90
49042;DHT22;34859;51.608;11.462;2023-08-24T11:23:32;25.00;99.90
49042;DHT22;34859;51.608;11.462;2023-08-24T11:25:59;25.00;99.90
49042;DHT22;34859;51.608;11.462;2023-08-24T11:28:30;24.90;99.90
49042;DHT22;34859;51.608;11.462;2023-08-24T11:30:58;25.00;99.90
49042;DHT22;34859;51.608;11.462;2023-08-24T11:33:30;24.90;99.90
49042;DHT22;34859;51.608;11.462;2023-08-24T11:36:08;25.00;99.90
49042;DHT22;34859;51.608;11.462;2023-08-24T11:38:57;25.10;99.90
49042;DHT22;34859;51.608;11.462;2023-08-24T11:41:44;25.20;99.90
49042;DHT22;34859;51.608;11.462;2023-08-24T11:44:47;25.40;99.90
49042;DHT22;34859;51.608;11.462;2023-08-24T11:47:14;25.40;99.90
49042;DHT22;34859;51.608;11.462;2023-08-24T11:49:40;25.40;99.90
49042;DHT22;34859;51.608;11.462;2023-08-24T11:52:08;25.50;99.90
49042;DHT22;34859;51.608;11.462;2023-08-24T11:54:34;25.50;99.90
49042;DHT22;34859;51.608;11.462;2023-08-24T11:57:08;25.50;99.90
49042;DHT22;34859;51.608;11.462;2023-08-24T11:59:43;25.60;99.90
49042;DHT22;34859;51.608;11.462;2023-08-24T12:02:10;25.80;99.90
49042;DHT22;34859;51.608;11.462;2023-08-24T12:04:41;25.70;99.90
49042;DHT22;34859;51.608;11.462;2023-08-24T12:07:10;25.80;99.90
49042;DHT22;34859;51.608;11.462;2023-08-24T12:09:41;26.00;99.90
49042;DHT22;34859;51.608;11.462;2023-08-24T12:12:17;26.10;99.90
49042;DHT22;34859;51.608;11.462;2023-08-24T12:14:45;26.10;99.90
49042;DHT22;34859;51.608;11.462;2023-08-24T12:17:13;26.00;99.90
49042;DHT22;34859;51.608;11.462;2023-08-24T12:19:45;26.00;99.90
49042;DHT22;34859;51.608;11.462;2023-08-24T12:22:21;26.00;99.90
49042;DHT22;34859;51.608;11.462;2023-08-24T12:24:47;25.90;99.90
49042;DHT22;34859;51.608;11.462;2023-08-24T12:27:22;26.00;99.90
49042;DHT22;34859;51.608;11.462;2023-08-24T12:29:48;26.00;99.90
49042;DHT22;34859;51.608;11.462;2023-08-24T12:32:13;26.00;99.90
49042;DHT22;34859;51.608;11.462;2023-08-24T12:34:41;26.00;99.90
49042;DHT22;34859;51.608;11.462;2023-08-24T12:37:07;26.10;99.90
49042;DHT22;34859;51.608;11.462;2023-08-24T12:39:36;26.20;99.90
49042;DHT22;34859;51.608;11.462;2023-08-24T12:42:03;26.30;99.90
49042;DHT22;34859;51.608;11.462;2023-08-24T12:44:29;26.30;99.90
49042;DHT22;34859;51.608;11.462;2023-08-24T12:46:54;26.40;99.90
49042;DHT22;34859;51.608;11.462;2023-08-24T12:49:20;26.40;99.90
49042;DHT22;34859;51.608;11.462;2023-08-24T12:51:47;26.50;99.90
49042;DHT22;34859;51.608;11.462;2023-08-24T12:54:13;26.60;99.90
49042;DHT22;34859;51.608;11.462;2023-08-24T12:56:39;26.60;99.90
49042;DHT22;34859;51.608;11.462;2023-08-24T12:59:07;26.60;99.90
49042;DHT22;34859;51.608;11.462;2023-08-24T13:01:33;26.60;99.90
49042;DHT22;34859;51.608;11.462;2023-08-24T13:03:59;26.70;99.90
49042;DHT22;34859;51.608;11.462;2023-08-24T13:06:24;26.70;99.90
49042;DHT22;34859;51.608;11.462;2023-08-24T13:09:10;26.60;99.90
49042;DHT22;34859;51.608;11.462;2023-08-24T13:11:37;26.70;99.90
49042;DHT22;34859;51.608;11.462;2023-08-24T13:14:03;26.70;99.90
49042;DHT22;34859;51.608;11.462;2023-08-24T13:16:30;26.80;99.90
49042;DHT22;34859;51.608;11.462;2023-08-24T13:18:57;26.80;99.90
49042;DHT22;34859;51.608;11.462;2023-08-24T13:21:25;26.90;99.90
49042;DHT22;34859;51.608;11.462;2023-08-24T13:23:51;26.90;99.90
49042;DHT22;34859;51.608;11.462;2023-08-24T13:26:21;26.90;99.90
49042;DHT22;34859;51.608;11.462;2023-08-24T13:28:49;26.90;99.90
49042;DHT22;34859;51.608;11.462;2023-08-24T13:31:15;26.90;99.90
49042;DHT22;34859;51.608;11.462;2023-08-24T13:33:41;26.90;99.90
49042;DHT22;34859;51.608;11.462;2023-08-24T13:36:07;26.80;99.90
49042;DHT22;34859;51.608;11.462;2023-08-24T13:38:33;26.90;99.90
49042;DHT22;34859;51.608;11.462;2023-08-24T13:41:00;27.00;99.90
49042;DHT22;34859;51.608;11.462;2023-08-24T13:43:28;27.00;99.90
49042;DHT22;34859;51.608;11.462;2023-08-24T13:45:53;27.10;99.90
49042;DHT22;34859;51.608;11.462;2023-08-24T13:48:19;27.10;99.90
49042;DHT22;34859;51.608;11.462;2023-08-24T13:50:51;27.10;99.90
49042;DHT22;34859;51.608;11.462;2023-08-24T13:53:22;27.20;99.90
49042;DHT22;34859;51.608;11.462;2023-08-24T13:55:47;27.10;99.90
49042;DHT22;34859;51.608;11.462;2023-08-24T13:58:13;27.10;99.90
49042;DHT22;34859;51.608;11.462;2023-08-24T14:00:39;27.10;99.90
49042;DHT22;34859;51.608;11.462;2023-08-24T14:03:04;27.10;99.90
49042;DHT22;34859;51.608;11.462;2023-08-24T14:05:30;27.20;99.90
49042;DHT22;34859;51.608;11.462;2023-08-24T14:08:01;27.20;99.90
49042;DHT22;34859;51.608;11.462;2023-08-24T14:10:28;27.30;99.90
49042;DHT22;34859;51.608;11.462;2023-08-24T14:12:55;27.40;99.90
49042;DHT22;34859;51.608;11.462;2023-08-24T14:15:20;27.30;99.70
49042;DHT22;34859;51.608;11.462;2023-08-24T14:17:47;27.30;99.20
49042;DHT22;34859;51.608;11.462;2023-08-24T14:20:12;27.40;99.90
49042;DHT22;34859;51.608;11.462;2023-08-24T14:22:39;27.40;99.90
49042;DHT22;34859;51.608;11.462;2023-08-24T14:25:07;27.40;99.90
49042;DHT22;34859;51.608;11.462;2023-08-24T14:27:33;27.50;99.90
49042;DHT22;34859;51.608;11.462;2023-08-24T14:29:58;27.50;99.90
49042;DHT22;34859;51.608;11.462;2023-08-24T14:32:43;27.30;99.90
49042;DHT22;34859;51.608;11.462;2023-08-24T14:35:27;27.20;99.90
49042;DHT22;34859;51.608;11.462;2023-08-24T14:37:53;27.10;99.90
49042;DHT22;34859;51.608;11.462;2023-08-24T14:40:19;27.10;99.90
49042;DHT22;34859;51.608;11.462;2023-08-24T14:42:47;27.00;99.90
49042;DHT22;34859;51.608;11.462;2023-08-24T14:45:15;27.00;99.90
49042;DHT22;34859;51.608;11.462;2023-08-24T14:47:41;27.00;99.90
49042;DHT22;34859;51.608;11.462;2023-08-24T14:50:07;27.00;99.90
49042;DHT22;34859;51.608;11.462;2023-08-24T14:52:33;27.00;99.90
49042;DHT22;34859;51.608;11.462;2023-08-24T14:55:01;27.00;99.90
49042;DHT22;34859;51.608;11.462;2023-08-24T14:57:28;26.90;99.90
49042;DHT22;34859;51.608;11.462;2023-08-24T14:59:53;26.90;99.90
49042;DHT22;34859;51.608;11.462;2023-08-24T15:02:19;26.70;99.90
49042;DHT22;34859;51.608;11.462;2023-08-24T15:04:45;26.60;99.90
49042;DHT22;34859;51.608;11.462;2023-08-24T15:07:11;26.50;99.90
49042;DHT22;34859;51.608;11.462;2023-08-24T15:09:37;26.50;99.90
49042;DHT22;34859;51.608;11.462;2023-08-24T15:12:03;26.40;99.90
49042;DHT22;34859;51.608;11.462;2023-08-24T15:14:30;26.30;99.90
49042;DHT22;34859;51.608;11.462;2023-08-24T15:16:59;26.30;99.90
49042;DHT22;34859;51.608;11.462;2023-08-24T15:19:25;26.30;99.90
49042;DHT22;34859;51.608;11.462;2023-08-24T15:21:51;26.30;99.90
49042;DHT22;34859;51.608;11.462;2023-08-24T15:24:17;26.30;99.90
49042;DHT22;34859;51.608;11.462;2023-08-24T15:26:43;26.30;99.90
49042;DHT22;34859;51.608;11.462;2023-08-24T15:29:14;26.30;99.90
49042;DHT22;34859;51.608;11.462;2023-08-24T15:31:41;26.30;99.90
49042;DHT22;34859;51.608;11.462;2023-08-24T15:34:07;26.40;99.90
49042;DHT22;34859;51.608;11.462;2023-08-24T15:36:33;26.60;99.90
49042;DHT22;34859;51.608;11.462;2023-08-24T15:39:00;26.60;99.90
49042;DHT22;34859;51.608;11.462;2023-08-24T15:41:29;26.60;99.90
49042;DHT22;34859;51.608;11.462;2023-08-24T15:43:55;26.60;99.90
49042;DHT22;34859;51.608;11.462;2023-08-24T15:46:20;26.70;99.90
49042;DHT22;34859;51.608;11.462;2023-08-24T15:48:47;26.80;99.90
49042;DHT22;34859;51.608;11.462;2023-08-24T15:51:13;26.80;99.90